Time;durP1;ratioP1;P1;durP2;ratioP2;P2;SDS_P1;SDS_P2;PMS_P1;PMS_P2;Temp;Humidity;BMP_temperature;BMP_pressure;BME280_temperature;BME280_humidity;BME280_pressure;Samples;Min_cycle;Max_cycle;Signal;HPM_P1;HPM_P2
2023/10/18 00:00:49;;;;;;;25.40;9.10;;;;;;;11.03;50.09;99178.22;67893;1273;1016601;-64
2023/10/18 00:04:14;;;;;;;26.30;9.30;;;;;;;10.87;49.72;99174.42;67922;1273;1016390;-65
2023/10/18 00:07:17;;;;;;;25.20;8.60;;;;;;;10.73;49.61;99172.92;67858;1272;1016350;-65
2023/10/18 00:10:21;;;;;;;26.60;8.30;;;;;;;10.63;49.71;99176.98;67887;1273;1016430;-64
2023/10/18 00:13:24;;;;;;;28.10;10.00;;;;;;;10.41;49.71;99173.98;67937;1273;1016486;-64
2023/10/18 00:16:27;;;;;;;27.30;8.80;;;;;;;10.22;50.22;99174.79;67865;1273;1016124;-61
2023/10/18 00:19:29;;;;;;;27.20;9.70;;;;;;;10.17;50.00;99178.76;67881;1273;1016432;-63
2023/10/18 00:22:32;;;;;;;24.90;9.10;;;;;;;10.09;50.12;99175.33;67913;1273;1016055;-64
2023/10/18 00:25:35;;;;;;;28.20;10.20;;;;;;;9.97;50.35;99176.98;67942;1273;1015965;-62
2023/10/18 00:28:38;;;;;;;29.00;9.70;;;;;;;9.91;50.13;99176.42;67888;1273;1016464;-63
2023/10/18 00:31:40;;;;;;;25.90;9.20;;;;;;;9.82;50.06;99173.59;67942;1273;1018124;-63
2023/10/18 00:34:42;;;;;;;31.40;10.60;;;;;;;9.77;50.41;99179.59;67932;1273;1016402;-63
2023/10/18 00:37:45;;;;;;;26.20;9.60;;;;;;;9.75;50.17;99176.20;67887;1273;1016358;-64
2023/10/18 00:40:51;;;;;;;;;;;;;;;9.61;50.30;99178.67;67867;1273;1016421;-62
2023/10/18 00:43:55;;;;;;;26.10;9.20;;;;;;;9.54;50.39;99186.02;67875;1273;1016359;-65
2023/10/18 00:46:57;;;;;;;32.50;11.40;;;;;;;9.52;50.22;99183.70;67856;1273;1016355;-61
2023/10/18 00:50:00;;;;;;;62.00;23.30;;;;;;;9.47;50.19;99180.41;67845;1273;1016429;-64
2023/10/18 00:53:02;;;;;;;;;;;;;;;9.39;50.24;99179.63;67910;1273;1016115;-63
2023/10/18 00:56:05;;;;;;;44.80;18.40;;;;;;;9.29;49.85;99179.59;67870;1273;1016136;-64
2023/10/18 00:59:13;;;;;;;52.60;19.30;;;;;;;9.22;49.74;99179.62;67873;1273;1018343;-63
2023/10/18 01:02:19;;;;;;;33.20;13.00;;;;;;;9.18;50.05;99181.52;67899;1273;1016169;-63
2023/10/18 01:05:21;;;;;;;34.70;13.20;;;;;;;9.15;49.96;99179.06;67875;1273;1016915;-60
2023/10/18 01:08:24;;;;;;;28.50;11.10;;;;;;;9.13;50.08;99176.38;67889;1273;1016345;-64
2023/10/18 01:11:28;;;;;;;;;;;;;;;9.02;49.69;99174.99;67932;1273;1016595;-64
2023/10/18 01:14:31;;;;;;;29.10;11.10;;;;;;;8.81;49.67;99173.75;67926;1273;1016399;-64
2023/10/18 01:17:37;;;;;;;32.60;11.20;;;;;;;8.71;50.08;99173.54;67883;1273;1016216;-64
2023/10/18 01:20:40;;;;;;;29.30;11.20;;;;;;;8.66;50.21;99175.69;67874;1273;1017089;-64
2023/10/18 01:23:44;;;;;;;29.10;11.10;;;;;;;8.57;50.26;99173.67;67888;1273;1016298;-64
2023/10/18 01:26:46;;;;;;;31.80;11.10;;;;;;;8.46;50.66;99170.15;67963;1273;1016268;-63
2023/10/18 01:29:49;;;;;;;72.40;24.50;;;;;;;8.44;50.02;99163.80;67899;1273;1016464;-64
2023/10/18 01:32:51;;;;;;;199.70;61.90;;;;;;;8.39;50.07;99159.83;67840;1273;1016315;-63
2023/10/18 01:35:54;;;;;;;387.90;112.30;;;;;;;8.38;50.69;99154.10;67872;1273;1016455;-65
2023/10/18 01:38:56;;;;;;;204.30;62.50;;;;;;;8.33;50.49;99149.64;67894;1273;1015742;-63
2023/10/18 01:42:00;;;;;;;94.20;29.50;;;;;;;8.28;50.02;99145.86;67962;1273;1016160;-64
2023/10/18 01:45:03;;;;;;;36.90;13.10;;;;;;;8.16;50.11;99146.23;67899;1273;1016292;-64
2023/10/18 01:48:09;;;;;;;38.30;17.30;;;;;;;8.09;50.17;99145.52;67879;1273;1015961;-64
2023/10/18 01:51:12;;;;;;;34.10;13.70;;;;;;;7.99;49.95;99153.80;67872;1273;1016394;-64
2023/10/18 01:54:15;;;;;;;33.20;13.60;;;;;;;7.82;49.94;99152.66;67916;1273;1016395;-64
2023/10/18 01:57:18;;;;;;;34.80;12.90;;;;;;;7.75;50.25;99149.14;67887;1273;1016326;-64
2023/10/18 02:00:33;;;;;;;;;;;;;;;7.65;50.35;99146.77;67903;1273;1016323;-62
2023/10/18 02:03:39;;;;;;;29.30;10.80;;;;;;;7.52;50.50;99145.59;67902;1273;1016116;-64
2023/10/18 02:06:42;;;;;;;27.40;10.40;;;;;;;7.40;50.64;99144.19;67918;1273;1016404;-64
2023/10/18 02:09:47;;;;;;;30.50;10.40;;;;;;;7.38;50.40;99139.23;67918;1273;1016239;-65
2023/10/18 02:12:50;;;;;;;28.00;10.30;;;;;;;7.43;50.29;99136.92;67874;1273;1016483;-64
2023/10/18 02:15:53;;;;;;;27.70;9.70;;;;;;;7.45;49.94;99138.94;67943;1273;1016218;-64
2023/10/18 02:18:56;;;;;;;30.60;10.30;;;;;;;7.40;50.25;99141.26;67856;1273;1016517;-65
2023/10/18 02:21:59;;;;;;;26.60;10.00;;;;;;;7.22;50.31;99144.63;67867;1251;1016285;-65
2023/10/18 02:25:02;;;;;;;34.00;11.50;;;;;;;7.27;50.88;99141.27;67870;1273;1016396;-65
2023/10/18 02:28:08;;;;;;;42.10;17.00;;;;;;;7.24;50.40;99135.30;67891;1273;1016393;-64
2023/10/18 02:31:13;;;;;;;72.10;28.40;;;;;;;7.26;50.50;99136.93;67897;1273;1016468;-65
2023/10/18 02:34:15;;;;;;;38.50;15.60;;;;;;;7.32;50.42;99133.57;67858;1273;1016465;-61
2023/10/18 02:37:19;;;;;;;54.40;20.70;;;;;;;7.35;50.32;99127.00;67898;1273;1017041;-63
2023/10/18 02:40:30;;;;;;;61.10;21.00;;;;;;;7.28;50.30;99127.85;67893;1273;1016210;-62
2023/10/18 02:43:33;;;;;;;50.10;18.20;;;;;;;7.19;50.39;99133.23;67870;1273;1016422;-64
2023/10/18 02:46:36;;;;;;;73.20;27.10;;;;;;;7.34;50.47;99128.77;67902;1273;1016084;-64
2023/10/18 02:49:38;;;;;;;31.40;11.10;;;;;;;7.29;50.05;99129.70;67914;1273;1016282;-64
2023/10/18 02:52:41;;;;;;;29.20;11.20;;;;;;;7.11;50.03;99131.17;67948;1273;1016658;-63
2023/10/18 02:55:44;;;;;;;33.90;11.80;;;;;;;7.01;50.40;99124.09;67855;1273;1016413;-63
2023/10/18 02:58:47;;;;;;;37.60;14.30;;;;;;;7.17;50.33;99120.80;67872;1273;1016038;-63
2023/10/18 03:01:50;;;;;;;32.40;12.90;;;;;;;7.22;50.40;99124.25;67938;1273;1016460;-64
2023/10/18 03:04:56;;;;;;;31.60;11.50;;;;;;;7.20;50.06;99120.70;67932;1273;1016293;-63
2023/10/18 03:07:58;;;;;;;33.20;12.80;;;;;;;6.98;50.01;99125.95;67904;1273;1018148;-64
2023/10/18 03:11:03;;;;;;;;;;;;;;;6.78;49.59;99140.83;67910;1273;1016487;-64
2023/10/18 03:14:06;;;;;;;42.90;15.30;;;;;;;6.55;49.99;99136.36;67850;1273;1016451;-64
2023/10/18 03:17:19;;;;;;;36.70;12.00;;;;;;;6.47;50.31;99130.06;67869;1273;1016555;-64
2023/10/18 03:20:23;;;;;;;33.70;12.30;;;;;;;6.49;50.51;99127.03;67869;1273;1016323;-62
2023/10/18 03:23:26;;;;;;;32.00;13.00;;;;;;;6.49;50.48;99126.70;67929;1273;1016428;-64
2023/10/18 03:26:35;;;;;;;35.50;12.60;;;;;;;6.39;50.67;99123.95;67894;1273;1016437;-64
2023/10/18 03:29:38;;;;;;;33.00;12.40;;;;;;;6.48;50.58;99127.25;67896;1273;1016172;-63
2023/10/18 03:32:41;;;;;;;33.20;12.10;;;;;;;6.47;50.74;99127.14;67954;1273;1017501;-62
2023/10/18 03:35:46;;;;;;;31.70;12.40;;;;;;;6.47;50.53;99125.58;67923;1273;1016333;-61
2023/10/18 03:38:53;;;;;;;36.00;13.20;;;;;;;6.39;50.84;99123.96;67913;1273;1016312;-63
2023/10/18 03:41:58;;;;;;;32.30;12.60;;;;;;;6.35;50.66;99126.18;67884;1273;1016457;-63
2023/10/18 03:45:00;;;;;;;34.30;12.30;;;;;;;6.37;50.86;99123.86;67931;1273;1016445;-63
2023/10/18 03:48:18;;;;;;;63.70;22.40;;;;;;;6.51;50.74;99114.47;67910;1273;1016099;-64
2023/10/18 03:51:23;;;;;;;57.40;21.50;;;;;;;6.62;50.67;99118.54;67909;1273;1015987;-63
2023/10/18 03:54:27;;;;;;;57.50;20.60;;;;;;;6.60;50.62;99117.41;67925;1273;1016281;-64
2023/10/18 03:57:30;;;;;;;56.10;20.10;;;;;;;6.54;50.69;99108.27;67907;1273;1016445;-63
2023/10/18 04:00:47;;;;;;;48.00;18.10;;;;;;;6.57;50.72;99106.92;67923;1273;1016883;-63
2023/10/18 04:03:50;;;;;;;39.40;14.60;;;;;;;6.55;50.62;99103.73;67925;1273;1016231;-64
2023/10/18 04:06:58;;;;;;;38.80;15.30;;;;;;;6.52;50.77;99104.50;67916;1273;1016458;-61
2023/10/18 04:10:12;;;;;;;43.60;14.60;;;;;;;6.58;50.59;99107.40;67881;1273;1016048;-62
2023/10/18 04:13:15;;;;;;;60.00;23.20;;;;;;;6.55;50.72;99096.20;67893;1273;1016274;-63
2023/10/18 04:16:18;;;;;;;48.70;19.90;;;;;;;6.60;50.43;99089.26;67951;1273;1018547;-62
2023/10/18 04:19:20;;;;;;;71.80;30.50;;;;;;;6.44;50.22;99092.84;67901;1273;1016241;-64
2023/10/18 04:22:23;;;;;;;55.20;21.40;;;;;;;6.29;50.49;99090.16;67918;1273;1016129;-64
2023/10/18 04:25:27;;;;;;;80.40;31.80;;;;;;;6.29;50.63;99087.55;67912;1273;1017642;-64
2023/10/18 04:28:29;;;;;;;74.40;29.30;;;;;;;6.35;50.77;99093.55;67955;1273;1016280;-63
2023/10/18 04:31:32;;;;;;;;;;;;;;;6.39;50.79;99091.30;67893;1273;1016710;-64
2023/10/18 04:34:35;;;;;;;45.00;16.70;;;;;;;6.39;50.75;99093.54;67872;1273;1016364;-62
2023/10/18 04:37:38;;;;;;;52.90;20.90;;;;;;;6.36;50.69;99096.83;67917;1273;1016464;-63
2023/10/18 04:40:43;;;;;;;48.30;18.50;;;;;;;6.36;50.76;99094.55;67865;1273;1016176;-63
2023/10/18 04:43:46;;;;;;;47.90;18.70;;;;;;;6.31;50.71;99099.80;67889;1273;1016338;-64
2023/10/18 04:46:52;;;;;;;39.80;14.90;;;;;;;6.21;50.54;99103.98;67893;1273;1016448;-64
2023/10/18 04:50:05;;;;;;;39.90;14.20;;;;;;;6.13;50.53;99098.05;67871;1273;1016524;-64
2023/10/18 04:53:12;;;;;;;38.50;14.70;;;;;;;6.17;50.46;99088.85;67963;1273;1016016;-64
2023/10/18 04:56:14;;;;;;;56.30;23.90;;;;;;;6.15;50.18;99087.55;67901;1273;1016286;-64
2023/10/18 04:59:38;;;;;;;;;;;;;;;6.11;50.23;99090.66;67950;1273;1015982;-64
2023/10/18 05:02:45;;;;;;;34.90;12.80;;;;;;;6.02;50.36;99086.15;67868;1273;1016758;-64
2023/10/18 05:05:52;;;;;;;38.90;15.70;;;;;;;6.02;50.24;99088.89;67932;1273;1016352;-64
2023/10/18 05:08:56;;;;;;;34.30;12.70;;;;;;;6.06;50.35;99094.50;67912;1273;1016266;-64
2023/10/18 05:11:58;;;;;;;32.20;12.20;;;;;;;6.02;50.27;99090.12;67886;1273;1016389;-65
2023/10/18 05:15:09;;;;;;;32.50;13.70;;;;;;;6.03;50.39;99082.60;67950;1273;1017985;-64
2023/10/18 05:18:16;;;;;;;31.60;12.20;;;;;;;6.03;50.50;99084.69;67932;1273;1016480;-64
2023/10/18 05:21:20;;;;;;;33.10;12.00;;;;;;;6.12;50.30;99088.71;67854;1273;1016451;-65
2023/10/18 05:24:23;;;;;;;32.50;12.20;;;;;;;6.12;50.28;99084.56;67884;1273;1016386;-63
2023/10/18 05:27:27;;;;;;;31.20;12.80;;;;;;;6.09;50.20;99078.23;67968;1273;1016393;-65
2023/10/18 05:31:20;;;;;;;34.00;12.50;;;;;;;6.09;50.17;99077.70;67865;1273;1016317;-64
2023/10/18 05:33:57;;;;;;;39.20;13.20;;;;;;;6.09;50.07;99081.02;67925;1273;1016200;-65
2023/10/18 05:37:13;;;;;;;38.00;13.50;;;;;;;5.98;50.45;99083.48;67769;1273;1016315;-65
2023/10/18 05:43:43;;;;;;;48.00;16.50;;;;;;;6.09;50.27;99082.41;67930;1273;1016437;-65
2023/10/18 05:46:46;;;;;;;41.40;15.50;;;;;;;6.09;50.52;99088.14;67921;1273;1016451;-65
2023/10/18 05:49:50;;;;;;;36.10;13.40;;;;;;;6.10;50.59;99088.95;67938;1273;1016433;-65
2023/10/18 05:52:57;;;;;;;38.20;13.20;;;;;;;6.18;50.73;99088.80;67875;1273;1016304;-64
2023/10/18 05:56:00;;;;;;;37.60;13.90;;;;;;;6.31;50.93;99096.31;67976;1273;1018726;-64
2023/10/18 06:02:37;;;;;;;35.10;12.00;;;;;;;6.66;50.63;99099.80;131571;1307;545725;-64
2023/10/18 06:05:40;;;;;;;33.60;12.70;;;;;;;6.69;50.69;99102.42;134688;1289;22557;-65
2023/10/18 06:08:44;;;;;;;34.10;12.20;;;;;;;6.81;50.49;99104.38;134683;1289;22534;-61
2023/10/18 06:11:48;;;;;;;34.00;13.00;;;;;;;6.92;50.35;99110.02;134712;1289;22537;-64
2023/10/18 06:14:52;;;;;;;37.40;13.30;;;;;;;7.00;50.82;99112.80;134631;1286;162823;-64
2023/10/18 06:17:57;;;;;;;33.00;14.00;;;;;;;7.26;50.60;99114.17;134822;1286;22536;-65
2023/10/18 06:21:06;;;;;;;33.90;12.80;;;;;;;7.30;50.59;99115.73;134832;1286;22550;-65
2023/10/18 06:24:10;;;;;;;34.10;12.90;;;;;;;7.38;50.62;99121.17;134815;1286;24222;-64
2023/10/18 06:27:15;;;;;;;33.30;13.50;;;;;;;7.55;50.81;99117.28;134833;1273;22532;-63
2023/10/18 06:30:18;;;;;;;37.40;15.20;;;;;;;7.72;50.76;99118.10;134814;1286;25438;-64
2023/10/18 06:33:21;;;;;;;35.40;15.00;;;;;;;7.88;50.66;99115.83;134807;1286;24261;-61
2023/10/18 06:36:24;;;;;;;42.30;15.70;;;;;;;7.93;50.86;99116.98;134831;1286;25365;-65
2023/10/18 06:39:28;;;;;;;40.70;15.90;;;;;;;8.03;50.80;99111.45;134817;1286;22546;-63
2023/10/18 06:42:30;;;;;;;36.40;15.20;;;;;;;8.18;51.05;99116.68;134822;1286;22645;-64
2023/10/18 06:45:35;;;;;;;34.50;14.60;;;;;;;8.42;50.98;99114.73;134819;1286;22550;-61
2023/10/18 06:48:38;;;;;;;40.40;15.30;;;;;;;8.64;51.25;99112.64;134853;1286;25439;-62
2023/10/18 06:51:44;;;;;;;42.60;15.90;;;;;;;8.91;50.89;99110.61;134836;1286;22550;-62
2023/10/18 06:54:47;;;;;;;43.90;16.00;;;;;;;9.22;50.90;99107.89;134848;1286;22644;-64
2023/10/18 06:57:52;;;;;;;39.80;15.40;;;;;;;9.42;51.01;99104.04;134825;1286;22551;-64
2023/10/18 07:00:59;;;;;;;46.50;18.50;;;;;;;9.76;50.47;99100.90;134810;1286;22558;-58
2023/10/18 07:04:03;;;;;;;56.30;21.20;;;;;;;9.89;50.77;99097.94;134834;1286;24374;-63
2023/10/18 07:07:11;;;;;;;53.90;23.50;;;;;;;9.89;50.93;99097.57;134817;1268;22540;-63
2023/10/18 07:10:40;;;;;;;54.80;23.20;;;;;;;9.84;51.65;99097.84;134829;1286;22713;-62
2023/10/18 07:13:46;;;;;;;56.70;25.90;;;;;;;10.10;52.09;99090.17;134802;1286;22546;-64
2023/10/18 07:16:49;;;;;;;68.10;30.30;;;;;;;10.28;52.51;99081.31;134801;1286;22625;-64
2023/10/18 07:19:55;;;;;;;75.10;35.30;;;;;;;10.89;51.18;99079.66;134806;1286;25259;-64
2023/10/18 07:22:58;;;;;;;63.80;31.60;;;;;;;11.26;51.23;99079.06;134787;1286;24258;-65
2023/10/18 07:26:00;;;;;;;80.50;34.30;;;;;;;11.63;50.68;99074.05;134788;1268;22603;-63
2023/10/18 07:29:06;;;;;;;70.50;33.20;;;;;;;11.81;50.34;99074.68;134780;1286;22542;-62
2023/10/18 07:32:12;;;;;;;58.30;28.50;;;;;;;11.91;50.40;99066.15;135497;1279;22535;-65
2023/10/18 07:35:26;;;;;;;64.50;31.40;;;;;;;12.14;50.35;99062.33;135485;1279;22726;-64
2023/10/18 07:38:29;;;;;;;75.50;35.40;;;;;;;12.34;49.86;99065.95;135514;1279;22581;-64
2023/10/18 07:41:34;;;;;;;73.00;36.50;;;;;;;12.52;49.85;99064.95;135490;1279;22575;-65
2023/10/18 07:44:41;;;;;;;72.00;34.40;;;;;;;12.72;49.92;99060.65;135512;1279;22573;-62
2023/10/18 07:47:43;;;;;;;68.40;34.00;;;;;;;12.81;49.97;99051.52;135479;1279;22549;-65
2023/10/18 07:50:50;;;;;;;;;;;;;;;12.97;49.53;99048.48;135469;1279;24252;-65
2023/10/18 07:53:53;;;;;;;71.10;34.00;;;;;;;13.30;49.04;99040.16;135460;1279;22625;-65
2023/10/18 07:56:55;;;;;;;70.60;35.30;;;;;;;13.57;48.97;99044.80;135494;1279;22709;-65
2023/10/18 08:00:21;;;;;;;76.40;35.90;;;;;;;13.76;49.26;99036.24;135523;1279;25426;-62
2023/10/18 08:03:21;;;;;;;;;;;;;;;14.03;49.03;99033.98;135482;1279;22521;-65
2023/10/18 08:06:27;;;;;;;66.10;31.80;;;;;;;14.36;49.21;99033.54;135475;1279;22547;-65
2023/10/18 08:09:30;;;;;;;70.40;34.10;;;;;;;14.61;48.57;99032.61;135497;1279;22536;-65
2023/10/18 08:12:33;;;;;;;40.80;18.80;;;;;;;14.65;47.53;99033.26;135436;1279;22542;-66
2023/10/18 08:15:36;;;;;;;44.80;21.70;;;;;;;14.77;47.42;99032.67;135496;1279;22652;-65
2023/10/18 08:18:42;;;;;;;44.00;21.30;;;;;;;15.07;47.42;99037.84;135477;1279;22558;-65
2023/10/18 08:21:57;;;;;;;38.50;18.90;;;;;;;15.25;47.19;99040.63;135507;1279;22547;-65
2023/10/18 08:25:01;;;;;;;42.00;18.10;;;;;;;15.35;46.22;99040.61;135496;1266;22526;-66
2023/10/18 08:28:06;;;;;;;36.50;17.40;;;;;;;15.44;45.45;99041.31;135510;1262;23222;-63
2023/10/18 08:31:09;;;;;;;40.10;17.70;;;;;;;15.62;46.26;99033.39;135503;1279;24256;-64
2023/10/18 08:34:15;;;;;;;37.20;16.60;;;;;;;15.87;45.73;99029.15;135513;1279;22569;-65
2023/10/18 08:37:18;;;;;;;33.50;16.30;;;;;;;15.93;43.94;99026.09;135498;1279;24104;-65
2023/10/18 08:40:27;;;;;;;35.50;16.60;;;;;;;15.80;43.27;99031.69;135480;1279;22540;-65
2023/10/18 08:43:30;;;;;;;32.10;15.30;;;;;;;15.83;43.72;99037.27;135472;1262;22526;-66
2023/10/18 08:46:36;;;;;;;32.60;15.10;;;;;;;16.18;44.03;99039.96;135494;1279;25361;-65
2023/10/18 08:49:44;;;;;;;33.40;14.90;;;;;;;16.38;43.69;99043.59;135492;1262;22536;-67
2023/10/18 08:52:48;;;;;;;30.40;13.40;;;;;;;16.44;43.04;99039.81;135537;1279;22525;-64
2023/10/18 08:55:52;;;;;;;31.70;14.80;;;;;;;16.61;42.99;99033.64;135526;1279;22540;-65
2023/10/18 08:58:56;;;;;;;29.80;12.20;;;;;;;16.80;42.88;99030.14;135494;1279;22537;-65
2023/10/18 09:02:09;;;;;;;28.40;11.30;;;;;;;16.93;40.52;99025.34;135526;1279;24370;-65
2023/10/18 09:05:13;;;;;;;27.50;11.10;;;;;;;16.92;41.48;99021.02;135510;1279;23960;-64
2023/10/18 09:08:19;;;;;;;23.80;8.40;;;;;;;17.10;41.06;99018.95;135502;1279;22630;-65
2023/10/18 09:11:22;;;;;;;25.60;9.30;;;;;;;17.20;40.12;99016.54;135504;1279;24386;-65
2023/10/18 09:14:27;;;;;;;26.10;9.90;;;;;;;17.39;40.53;99015.59;135494;1279;24398;-65
2023/10/18 09:17:29;;;;;;;22.80;7.10;;;;;;;17.63;40.79;99016.52;135495;1279;22537;-65
2023/10/18 09:20:32;;;;;;;;;;;;;;;17.50;37.86;99019.03;135496;1279;22515;-65
2023/10/18 09:23:35;;;;;;;25.40;9.60;;;;;;;17.47;38.63;99019.66;135474;1279;22541;-65
2023/10/18 09:26:42;;;;;;;23.20;7.60;;;;;;;17.65;38.43;99018.83;135500;1279;22564;-65
2023/10/18 09:29:44;;;;;;;24.20;8.30;;;;;;;17.80;38.22;99017.41;135548;1279;22544;-66
2023/10/18 09:32:47;;;;;;;;;;;;;;;17.76;37.75;99017.17;135521;1279;22520;-64
2023/10/18 09:35:51;;;;;;;22.30;7.40;;;;;;;17.70;37.25;99018.64;135506;1279;22558;-65
2023/10/18 09:38:53;;;;;;;27.90;9.40;;;;;;;17.78;38.71;99014.17;135512;1279;22640;-65
2023/10/18 09:41:59;;;;;;;21.90;6.80;;;;;;;18.09;37.77;99013.77;135471;1279;23213;-63
2023/10/18 09:45:02;;;;;;;21.20;6.80;;;;;;;17.98;36.68;99008.73;135504;1279;23913;-65
2023/10/18 09:48:08;;;;;;;16.50;5.10;;;;;;;18.02;37.29;99003.64;135464;1279;22545;-65
2023/10/18 09:51:10;;;;;;;19.10;6.00;;;;;;;18.06;36.01;98997.63;135498;1279;22545;-65
2023/10/18 09:54:13;;;;;;;;;;;;;;;18.03;37.11;98992.55;135515;1279;22513;-65
2023/10/18 09:57:19;;;;;;;23.50;7.20;;;;;;;17.94;35.78;98990.02;135514;1279;22539;-65
2023/10/18 10:00:23;;;;;;;22.50;7.00;;;;;;;18.10;37.06;98984.48;135477;1279;22539;-65
2023/10/18 10:03:25;;;;;;;22.40;7.30;;;;;;;18.43;36.77;98987.03;135506;1279;22530;-65
2023/10/18 10:06:28;;;;;;;21.10;7.30;;;;;;;18.53;36.23;98993.93;135519;1279;22530;-64
2023/10/18 10:09:33;;;;;;;24.50;8.20;;;;;;;18.47;36.37;98989.72;135509;1279;25413;-65
2023/10/18 10:12:42;;;;;;;22.70;8.30;;;;;;;18.28;35.53;98982.33;135499;1279;22544;-66
2023/10/18 10:15:45;;;;;;;24.40;8.20;;;;;;;17.99;35.78;98981.77;135511;1279;22544;-66
2023/10/18 10:18:49;;;;;;;23.70;8.60;;;;;;;17.60;36.78;98981.50;135546;1279;23889;-66
2023/10/18 10:21:52;;;;;;;22.30;7.60;;;;;;;17.34;37.16;98984.23;135474;1279;22565;-65
2023/10/18 10:24:59;;;;;;;22.40;7.20;;;;;;;17.21;36.59;98977.36;135524;1256;22538;-64
2023/10/18 10:28:14;;;;;;;22.20;7.10;;;;;;;17.46;36.79;98974.02;135514;1279;22542;-65
2023/10/18 10:31:16;;;;;;;17.90;5.50;;;;;;;17.67;36.10;98966.48;135523;1279;22571;-66
2023/10/18 10:34:24;;;;;;;;;;;;;;;18.05;36.54;98956.83;135534;1279;22525;-65
2023/10/18 10:37:27;;;;;;;19.40;5.90;;;;;;;18.48;35.95;98955.57;135459;1279;22552;-63
2023/10/18 10:40:37;;;;;;;20.80;6.40;;;;;;;18.58;34.62;98950.12;135501;1279;22537;-65
2023/10/18 10:43:39;;;;;;;19.60;5.80;;;;;;;18.55;35.14;98947.02;135490;1279;22535;-65
2023/10/18 10:46:45;;;;;;;;;;;;;;;18.76;34.77;98944.33;135499;1279;22526;-65
2023/10/18 10:49:47;;;;;;;17.20;5.40;;;;;;;18.62;34.00;98948.95;135484;1279;22547;-65
2023/10/18 10:52:50;;;;;;;;;;;;;;;18.65;34.14;98940.60;135503;1279;22521;-64
2023/10/18 10:55:52;;;;;;;18.00;5.60;;;;;;;18.74;34.02;98935.86;135490;1279;22531;-65
2023/10/18 10:59:03;;;;;;;19.10;5.50;;;;;;;18.55;33.72;98935.66;135544;1262;24242;-64
2023/10/18 11:02:08;;;;;;;18.30;5.50;;;;;;;18.45;33.28;98936.74;135500;1279;22569;-65
2023/10/18 11:05:16;;;;;;;20.30;5.70;;;;;;;18.61;33.76;98925.90;135490;1266;22549;-65
2023/10/18 11:08:19;;;;;;;20.50;5.30;;;;;;;19.02;34.58;98920.30;135509;1279;22559;-65
2023/10/18 11:11:22;;;;;;;18.10;5.30;;;;;;;19.17;33.73;98911.86;135498;1279;22568;-65
2023/10/18 11:14:27;;;;;;;17.90;5.70;;;;;;;19.62;34.33;98911.75;135504;1279;22543;-65
2023/10/18 11:17:34;;;;;;;17.20;5.60;;;;;;;19.73;32.88;98911.58;135515;1279;22544;-64
2023/10/18 11:20:48;;;;;;;19.10;5.80;;;;;;;19.35;32.24;98901.92;135465;1279;25262;-65
2023/10/18 11:23:51;;;;;;;18.30;5.50;;;;;;;18.97;32.63;98900.44;135488;1279;22547;-62
2023/10/18 11:26:53;;;;;;;22.10;6.00;;;;;;;18.77;32.66;98898.05;135481;1262;22530;-63
2023/10/18 11:29:55;;;;;;;;;;;;;;;18.78;32.97;98901.84;135450;1279;22524;-63
2023/10/18 11:32:58;;;;;;;17.00;5.30;;;;;;;18.79;33.17;98897.81;135518;1270;22578;-63
2023/10/18 11:36:02;;;;;;;17.00;5.70;;;;;;;18.96;33.46;98890.73;135512;1279;22540;-64
2023/10/18 11:39:21;;;;;;;25.90;9.30;;;;;;;19.43;33.88;98886.86;135512;1279;22540;-63
2023/10/18 11:42:23;;;;;;;19.20;5.90;;;;;;;19.80;32.68;98887.14;135510;1264;22532;-63
2023/10/18 11:45:27;;;;;;;;;;;;;;;19.44;31.85;98892.27;135562;1279;22527;-64
2023/10/18 11:48:30;;;;;;;17.30;5.70;;;;;;;19.26;32.04;98884.01;135500;1279;24908;-64
2023/10/18 11:51:35;;;;;;;;;;;;;;;19.32;33.01;98878.71;135553;1279;25333;-64
2023/10/18 11:54:37;;;;;;;17.10;5.50;;;;;;;19.63;32.90;98875.47;135519;1279;22540;-64
2023/10/18 11:57:41;;;;;;;;;;;;;;;19.80;32.10;98879.36;135539;1262;22665;-64
2023/10/18 12:00:47;;;;;;;16.90;5.30;;;;;;;19.65;32.38;98871.79;135473;1279;24367;-62
2023/10/18 12:03:50;;;;;;;17.60;5.50;;;;;;;19.51;31.77;98872.21;135516;1279;23884;-62
2023/10/18 12:06:53;;;;;;;17.20;5.30;;;;;;;19.32;31.86;98870.30;135501;1279;24403;-64
2023/10/18 12:09:56;;;;;;;;;;;;;;;19.20;32.45;98865.87;135505;1279;22527;-64
2023/10/18 12:12:58;;;;;;;19.00;5.70;;;;;;;19.01;32.15;98861.81;135503;1256;24269;-64
2023/10/18 12:16:01;;;;;;;;;;;;;;;19.05;32.46;98860.15;135566;1279;22546;-64
2023/10/18 12:19:06;;;;;;;19.50;6.20;;;;;;;19.24;32.56;98852.14;135485;1279;22540;-64
2023/10/18 12:22:09;;;;;;;19.20;5.20;;;;;;;19.22;32.23;98842.59;135501;1276;22530;-63
2023/10/18 12:25:15;;;;;;;19.60;6.20;;;;;;;19.13;31.96;98840.84;135479;1279;23887;-64
2023/10/18 12:28:19;;;;;;;20.20;6.40;;;;;;;19.12;31.85;98835.77;135542;1266;24249;-63
2023/10/18 12:31:27;;;;;;;21.70;6.70;;;;;;;19.18;32.35;98824.88;135491;1279;22676;-63
2023/10/18 12:34:29;;;;;;;19.00;5.80;;;;;;;19.28;32.62;98823.54;135501;1279;22542;-64
2023/10/18 12:37:32;;;;;;;;;;;;;;;19.51;32.73;98826.70;135525;1279;22513;-62
2023/10/18 12:40:41;;;;;;;21.00;5.90;;;;;;;19.56;32.58;98822.23;135518;1279;22651;-64
2023/10/18 12:43:45;;;;;;;20.50;6.70;;;;;;;19.49;32.17;98814.41;135522;1279;22640;-64
2023/10/18 12:46:50;;;;;;;20.60;6.30;;;;;;;19.57;32.81;98807.45;135506;1279;22537;-60
2023/10/18 12:49:52;;;;;;;21.60;6.20;;;;;;;19.63;32.38;98802.61;135499;1270;23676;-61
2023/10/18 12:53:16;;;;;;;;;;;;;;;19.66;32.23;98801.77;135511;1279;22517;-64
2023/10/18 12:56:23;;;;;;;21.70;6.70;;;;;;;19.47;32.10;98807.36;135546;1270;22552;-60
2023/10/18 12:59:37;;;;;;;22.20;6.60;;;;;;;19.22;32.72;98799.70;135491;1279;22543;-63
2023/10/18 13:02:48;;;;;;;19.70;6.60;;;;;;;19.19;32.97;98800.66;135463;1279;24222;-61
2023/10/18 13:05:53;;;;;;;20.90;6.60;;;;;;;19.27;32.71;98794.20;135522;1279;22523;-62
2023/10/18 13:08:56;;;;;;;22.20;6.70;;;;;;;19.53;32.47;98789.97;135502;1279;25367;-63
2023/10/18 13:12:07;;;;;;;22.10;6.70;;;;;;;19.69;32.20;98786.93;135509;1279;22530;-63
2023/10/18 13:15:10;;;;;;;20.70;6.50;;;;;;;19.71;32.63;98787.27;135477;1279;21799;-64
2023/10/18 13:18:13;;;;;;;22.80;7.20;;;;;;;19.72;32.60;98787.75;135502;1279;25266;-64
2023/10/18 13:21:16;;;;;;;24.00;7.00;;;;;;;19.73;32.39;98781.91;135476;1279;22561;-64
2023/10/18 13:24:28;;;;;;;18.80;6.50;;;;;;;19.74;32.44;98774.92;135531;1279;22548;-63
2023/10/18 13:27:36;;;;;;;23.30;7.50;;;;;;;19.69;32.54;98768.30;135446;1269;22511;-64
2023/10/18 13:30:43;;;;;;;22.20;7.00;;;;;;;19.90;32.55;98764.34;135506;1279;22563;-63
2023/10/18 13:33:45;;;;;;;24.60;7.10;;;;;;;20.09;32.39;98765.21;135503;1279;22533;-62
2023/10/18 13:36:48;;;;;;;;;;;;;;;20.12;32.28;98761.70;135522;1279;22535;-63
2023/10/18 13:39:52;;;;;;;;;;;;;;;19.92;31.99;98756.66;135527;1279;22512;-61
2023/10/18 13:42:55;;;;;;;22.00;6.60;;;;;;;19.77;31.99;98754.55;135461;1279;25362;-64
2023/10/18 13:45:58;;;;;;;;;;;;;;;19.75;32.70;98752.32;135541;1279;22518;-63
2023/10/18 13:49:00;;;;;;;20.80;6.60;;;;;;;19.71;32.34;98751.66;135529;1279;22567;-64
2023/10/18 13:52:04;;;;;;;;;;;;;;;19.63;32.22;98744.64;135509;1279;22620;-65
2023/10/18 13:55:07;;;;;;;20.40;6.60;;;;;;;19.69;32.39;98744.05;135515;1279;22556;-65
2023/10/18 13:58:09;;;;;;;24.00;9.00;;;;;;;19.76;32.94;98738.32;135531;1279;22548;-65
2023/10/18 14:01:14;;;;;;;26.60;9.30;;;;;;;20.03;32.50;98732.98;135558;1279;22659;-63
2023/10/18 14:04:24;;;;;;;23.80;7.70;;;;;;;20.24;32.51;98731.76;135506;1279;22549;-64
2023/10/18 14:07:28;;;;;;;20.40;7.00;;;;;;;20.03;31.94;98728.58;135524;1279;22557;-64
2023/10/18 14:10:35;;;;;;;21.60;7.00;;;;;;;20.04;32.75;98729.38;135526;1279;25413;-64
2023/10/18 14:13:38;;;;;;;22.80;7.80;;;;;;;19.81;32.43;98731.47;135527;1279;22556;-65
2023/10/18 14:16:40;;;;;;;20.60;7.40;;;;;;;19.46;32.38;98728.96;135535;1279;22547;-65
2023/10/18 14:19:43;;;;;;;;;;;;;;;19.34;32.56;98722.52;135540;1270;22623;-64